createdAt,value
2019-01-19T00:01:02.842Z,57.63
2019-01-19T00:05:10.593Z,57.55
2019-01-19T00:08:24.180Z,57.47
2019-01-19T00:11:49.594Z,57.36
2019-01-19T00:14:40.279Z,57.30
2019-01-19T00:18:31.395Z,57.33
2019-01-19T00:21:38.424Z,57.36
2019-01-19T00:24:57.314Z,57.39
2019-01-19T00:28:19.921Z,57.47
2019-01-19T00:31:19.124Z,57.49
2019-01-19T00:34:48.221Z,57.52
2019-01-19T00:37:48.729Z,57.53
2019-01-19T00:41:16.512Z,57.43
2019-01-19T00:44:22.930Z,57.37
2019-01-19T00:47:53.389Z,57.24
2019-01-19T00:51:39.544Z,57.22
2019-01-19T00:54:38.207Z,57.09
2019-01-19T00:58:05.970Z,57.07
2019-01-19T01:00:55.480Z,57.12
2019-01-19T01:04:17.722Z,57.15
2019-01-19T01:07:59.052Z,57.24
2019-01-19T01:10:49.793Z,57.29
2019-01-19T01:14:35.920Z,57.33
2019-01-19T01:17:49.391Z,57.44
2019-01-19T01:20:49.013Z,57.50
2019-01-19T01:24:16.280Z,57.60
2019-01-19T01:27:21.048Z,57.68
2019-01-19T01:30:34.379Z,57.65
2019-01-19T01:33:50.821Z,57.62
2019-01-19T01:37:28.021Z,57.61
2019-01-19T01:40:49.360Z,57.54
2019-01-19T01:44:14.028Z,57.41
2019-01-19T01:47:54.041Z,57.35
2019-01-19T01:50:45.629Z,57.31
2019-01-19T01:54:04.412Z,57.33
2019-01-19T01:56:37.798Z,57.31
2019-01-19T02:00:08.743Z,57.34
2019-01-19T02:03:34.426Z,57.42
2019-01-19T02:07:24.570Z,57.44
2019-01-19T02:10:49.833Z,57.44
2019-01-19T02:13:47.198Z,57.57
2019-01-19T02:17:17.442Z,57.65
2019-01-19T02:20:32.839Z,57.78
2019-01-19T02:23:43.773Z,57.84
2019-01-19T02:27:43.305Z,57.97
2019-01-19T02:31:17.688Z,58.03
2019-01-19T02:34:43.360Z,58.00
2019-01-19T02:38:09.475Z,58.00
2019-01-19T02:41:22.486Z,58.03
2019-01-19T02:44:53.591Z,58.02
2019-01-19T02:48:18.193Z,58.06
2019-01-19T02:51:19.987Z,58.12
2019-01-19T02:55:09.987Z,58.19
2019-01-19T02:59:00.580Z,58.30
2019-01-19T03:02:02.857Z,58.33
2019-01-19T03:05:08.793Z,58.37
2019-01-19T03:08:11.262Z,58.38
2019-01-19T03:11:43.842Z,58.41
2019-01-19T03:15:27.419Z,58.43
2019-01-19T03:18:51.238Z,58.44
2019-01-19T03:22:13.960Z,58.44
2019-01-19T03:25:29.255Z,58.44
2019-01-19T03:28:55.148Z,58.43
2019-01-19T03:32:15.002Z,58.40
2019-01-19T03:35:34.192Z,58.38
2019-01-19T03:38:42.300Z,58.29
2019-01-19T03:42:07.474Z,58.18
2019-01-19T03:45:04.228Z,58.06
2019-01-19T03:48:07.953Z,57.98
2019-01-19T03:51:27.520Z,57.97
2019-01-19T03:54:56.030Z,57.99
2019-01-19T03:57:52.567Z,58.05
2019-01-19T04:01:11.265Z,58.13
2019-01-19T04:04:18.946Z,58.25
2019-01-19T04:07:16.660Z,58.33
2019-01-19T04:10:52.678Z,58.38
2019-01-19T04:14:18.678Z,58.48
2019-01-19T04:17:52.601Z,58.53
2019-01-19T04:21:14.940Z,58.60
2019-01-19T04:23:53.973Z,58.53
2019-01-19T04:26:44.785Z,58.47
2019-01-19T04:29:16.410Z,58.48
2019-01-19T04:31:48.054Z,58.47
2019-01-19T04:34:20.042Z,58.48
2019-01-19T04:36:52.032Z,58.50
2019-01-19T04:39:23.652Z,58.55
2019-01-19T04:41:55.715Z,58.60
2019-01-19T04:44:27.334Z,58.67
2019-01-19T04:46:58.975Z,58.73
2019-01-19T04:49:30.565Z,58.79
2019-01-19T04:52:02.270Z,58.79
2019-01-19T04:54:33.973Z,58.76
2019-01-19T04:57:06.177Z,58.67
2019-01-19T04:59:38.870Z,58.56
2019-01-19T05:02:10.596Z,58.46
2019-01-19T05:04:42.208Z,58.42
2019-01-19T05:07:13.810Z,58.38
2019-01-19T05:09:45.455Z,58.33
2019-01-19T05:12:17.872Z,58.27
2019-01-19T05:14:49.491Z,58.26
2019-01-19T05:17:21.124Z,58.18
2019-01-19T05:19:52.786Z,58.16
2019-01-19T05:22:25.607Z,58.13
2019-01-19T05:24:57.467Z,58.10
2019-01-19T05:27:31.502Z,58.11
2019-01-19T05:30:03.129Z,58.09
2019-01-19T05:32:34.995Z,58.02
2019-01-19T05:35:27.190Z,57.96
2019-01-19T05:37:58.837Z,57.90
2019-01-19T05:40:30.466Z,57.86
2019-01-19T05:43:02.754Z,57.84
2019-01-19T05:45:33.429Z,57.84
2019-01-19T05:48:02.676Z,57.87
2019-01-19T05:50:34.411Z,57.88
2019-01-19T05:53:06.230Z,57.91
2019-01-19T05:55:41.272Z,57.95
2019-01-19T05:58:12.896Z,57.99
2019-01-19T06:00:45.126Z,58.03
2019-01-19T06:03:16.743Z,58.10
2019-01-19T06:05:49.060Z,58.09
2019-01-19T06:08:20.669Z,58.07
2019-01-19T06:10:52.283Z,58.02
2019-01-19T06:13:23.905Z,57.99
2019-01-19T06:15:56.001Z,57.93
2019-01-19T06:18:29.195Z,57.86
2019-01-19T06:21:01.034Z,57.85
2019-01-19T06:23:32.731Z,57.82
2019-01-19T06:26:04.435Z,57.88
2019-01-19T06:28:37.069Z,57.96
2019-01-19T06:31:09.116Z,58.04
2019-01-19T06:33:40.819Z,58.10
2019-01-19T06:36:13.178Z,58.14
2019-01-19T06:38:44.830Z,58.15
2019-01-19T06:41:16.503Z,58.13
2019-01-19T06:43:48.147Z,58.07
2019-01-19T06:46:20.464Z,58.06
2019-01-19T06:48:54.918Z,58.10
2019-01-19T06:51:31.366Z,58.16
2019-01-19T06:54:03.251Z,58.20
2019-01-19T06:56:34.920Z,58.20
2019-01-19T06:59:09.021Z,58.21
2019-01-19T07:01:40.729Z,58.19
2019-01-19T07:04:13.077Z,58.16
2019-01-19T07:06:46.551Z,58.11
2019-01-19T07:09:18.290Z,58.06
2019-01-19T07:11:50.220Z,58.02
2019-01-19T07:14:22.439Z,57.99
2019-01-19T07:16:55.529Z,57.98
2019-01-19T07:19:27.879Z,57.98
2019-01-19T07:21:59.534Z,58.00
2019-01-19T07:24:32.651Z,58.04
2019-01-19T07:27:15.613Z,58.12
2019-01-19T07:29:48.438Z,58.21
2019-01-19T07:32:20.134Z,58.27
2019-01-19T07:34:52.262Z,58.29
2019-01-19T07:37:23.922Z,58.32
2019-01-19T07:39:55.548Z,58.33
2019-01-19T07:42:27.162Z,58.33
2019-01-19T07:44:58.843Z,58.35
2019-01-19T07:47:31.139Z,58.37
2019-01-19T07:50:05.256Z,58.43
2019-01-19T07:52:36.952Z,58.50
2019-01-19T07:55:11.090Z,58.60
2019-01-19T07:57:42.934Z,58.66
2019-01-19T08:00:28.118Z,58.73
2019-01-19T08:02:59.838Z,58.79
2019-01-19T08:05:32.405Z,58.81
2019-01-19T08:08:04.043Z,58.84
2019-01-19T08:10:36.105Z,58.85
2019-01-19T08:13:07.900Z,58.88
2019-01-19T08:15:39.662Z,58.92
2019-01-19T08:18:11.728Z,58.92
2019-01-19T08:20:44.798Z,58.92
2019-01-19T08:23:17.441Z,58.94
2019-01-19T08:25:49.207Z,58.97
2019-01-19T08:28:20.875Z,59.07
2019-01-19T08:30:52.666Z,59.10
2019-01-19T08:33:24.475Z,59.13
2019-01-19T08:35:56.978Z,59.19
2019-01-19T08:38:28.630Z,59.25
2019-01-19T08:41:00.426Z,59.32
2019-01-19T08:43:37.821Z,59.39
2019-01-19T08:46:09.779Z,59.37
2019-01-19T08:48:41.579Z,59.38
2019-01-19T08:51:32.457Z,59.44
2019-01-19T08:54:12.457Z,59.48
2019-01-19T08:56:54.965Z,59.45
2019-01-19T08:59:45.258Z,59.48
2019-01-19T09:02:27.114Z,59.45
2019-01-19T09:05:19.148Z,59.41
2019-01-19T09:07:58.623Z,59.33
2019-01-19T09:10:34.800Z,59.27
2019-01-19T09:13:06.771Z,59.25
2019-01-19T09:15:39.293Z,59.20
2019-01-19T09:18:17.470Z,59.25
2019-01-19T09:20:54.992Z,59.30
2019-01-19T09:23:34.607Z,59.31
2019-01-19T09:26:06.706Z,59.26
2019-01-19T09:28:38.440Z,59.27
2019-01-19T09:31:10.405Z,59.30
2019-01-19T09:33:42.246Z,59.30
2019-01-19T09:36:14.040Z,59.30
2019-01-19T09:38:46.382Z,59.24
2019-01-19T09:41:18.081Z,59.19
2019-01-19T09:43:50.191Z,59.13
2019-01-19T09:46:22.859Z,59.19
2019-01-19T09:48:54.760Z,59.19
2019-01-19T09:51:26.808Z,59.13
2019-01-19T09:53:59.495Z,59.07
2019-01-19T09:56:31.295Z,58.98
2019-01-19T09:59:03.597Z,58.91
2019-01-19T10:01:35.385Z,58.90
2019-01-19T10:04:07.304Z,58.79
2019-01-19T10:06:39.486Z,58.69
2019-01-19T10:09:11.895Z,58.63
2019-01-19T10:11:43.647Z,58.44
2019-01-19T10:14:15.323Z,58.43
2019-01-19T10:16:47.044Z,58.29
2019-01-19T10:19:18.948Z,58.34
2019-01-19T10:21:50.631Z,58.26
2019-01-19T10:24:32.568Z,58.29
2019-01-19T10:27:04.346Z,58.14
2019-01-19T10:29:36.202Z,58.09
2019-01-19T10:32:07.850Z,58.13
2019-01-19T10:34:39.725Z,58.11
2019-01-19T10:37:11.465Z,58.01
2019-01-19T10:39:43.834Z,57.85
2019-01-19T10:42:15.603Z,57.85
2019-01-19T10:44:47.334Z,57.81
2019-01-19T10:47:18.963Z,57.76
2019-01-19T10:49:50.706Z,57.67
2019-01-19T10:52:22.428Z,57.64
2019-01-19T10:54:54.065Z,57.70
2019-01-19T10:57:27.189Z,57.60
2019-01-19T10:59:59.055Z,57.56
2019-01-19T11:02:30.785Z,57.45
2019-01-19T11:05:02.749Z,57.36
2019-01-19T11:07:34.884Z,57.34
2019-01-19T11:10:10.074Z,57.22
2019-01-19T11:12:42.440Z,56.95
2019-01-19T11:15:16.008Z,57.23
2019-01-19T11:17:47.738Z,57.26
2019-01-19T11:20:25.706Z,57.19
2019-01-19T11:22:58.785Z,57.16
2019-01-19T11:25:30.576Z,57.05
2019-01-19T11:28:03.128Z,56.90
2019-01-19T11:30:34.859Z,56.88
2019-01-19T11:33:06.848Z,56.80
2019-01-19T11:35:38.550Z,56.68
2019-01-19T11:38:11.974Z,56.65
2019-01-19T11:40:43.650Z,56.55
2019-01-19T11:43:16.055Z,56.64
2019-01-19T11:45:47.720Z,56.69
2019-01-19T11:48:19.377Z,56.50
2019-01-19T11:50:51.032Z,56.19
2019-01-19T11:53:23.005Z,56.41
2019-01-19T11:55:54.664Z,56.43
2019-01-19T11:58:28.684Z,56.45
2019-01-19T12:01:00.476Z,56.05
2019-01-19T12:03:32.252Z,56.16
2019-01-19T12:06:04.559Z,56.32
2019-01-19T12:08:36.766Z,56.13
2019-01-19T12:11:08.513Z,55.95
2019-01-19T12:13:40.882Z,55.76
2019-01-19T12:16:14.038Z,55.81
2019-01-19T12:18:45.786Z,56.13
2019-01-19T12:21:17.466Z,56.23
2019-01-19T12:23:49.257Z,56.23
2019-01-19T12:26:21.111Z,56.20
2019-01-19T12:28:53.911Z,56.07
2019-01-19T12:31:25.864Z,55.79
2019-01-19T12:33:57.647Z,55.69
2019-01-19T12:36:29.631Z,55.64
2019-01-19T12:39:01.299Z,55.51
2019-01-19T12:41:33.010Z,55.15
2019-01-19T12:44:05.039Z,55.25
2019-01-19T12:46:37.352Z,54.88
2019-01-19T12:49:09.155Z,55.15
2019-01-19T12:51:49.138Z,55.03
2019-01-19T12:54:23.017Z,54.31
2019-01-19T12:57:01.744Z,54.34
2019-01-19T12:59:35.149Z,54.62
2019-01-19T13:02:09.808Z,54.43
2019-01-19T13:04:43.189Z,54.50
2019-01-19T13:07:21.791Z,54.67
2019-01-19T13:10:13.736Z,54.52
2019-01-19T13:13:15.363Z,54.20
2019-01-19T13:16:41.291Z,54.32
2019-01-19T13:19:56.626Z,54.28
2019-01-19T13:23:16.168Z,54.17
2019-01-19T13:26:58.465Z,54.04
2019-01-19T13:30:35.395Z,53.61
2019-01-19T13:33:51.044Z,53.20
2019-01-19T13:37:05.348Z,53.57
2019-01-19T13:40:37.306Z,53.73
2019-01-19T13:44:13.500Z,53.72
2019-01-19T13:48:16.138Z,53.76
2019-01-19T13:51:44.999Z,53.87
2019-01-19T13:55:41.032Z,53.55
2019-01-19T13:58:57.716Z,53.28
2019-01-19T14:02:29.594Z,53.34
2019-01-19T14:05:55.047Z,53.51
2019-01-19T14:09:13.293Z,53.48
2019-01-19T14:12:40.181Z,53.48
2019-01-19T14:15:47.304Z,53.44
2019-01-19T14:19:02.923Z,53.37
2019-01-19T14:22:38.135Z,53.56
2019-01-19T14:26:36.422Z,53.61
2019-01-19T14:30:11.414Z,53.38
2019-01-19T14:33:41.784Z,53.50
2019-01-19T14:37:18.416Z,53.49
2019-01-19T14:40:35.789Z,53.56
2019-01-19T14:44:00.777Z,53.35
2019-01-19T14:47:16.890Z,53.40
2019-01-19T14:50:44.297Z,53.49
2019-01-19T14:54:45.575Z,53.33
2019-01-19T14:57:37.416Z,53.41
2019-01-19T15:01:16.853Z,53.65
2019-01-19T15:04:52.033Z,53.44
2019-01-19T15:08:05.970Z,53.54
2019-01-19T15:11:31.172Z,53.69
2019-01-19T15:15:32.970Z,53.68
2019-01-19T15:19:08.629Z,53.66
2019-01-19T15:22:21.628Z,53.62
2019-01-19T15:25:48.718Z,53.69
2019-01-19T15:29:29.030Z,53.74
2019-01-19T15:32:43.214Z,53.54
2019-01-19T15:36:23.050Z,53.47
2019-01-19T15:40:02.257Z,53.50
2019-01-19T15:43:05.883Z,53.49
2019-01-19T15:46:29.896Z,53.59
2019-01-19T15:49:56.806Z,53.64
2019-01-19T15:54:05.019Z,53.67
2019-01-19T15:57:22.964Z,53.71
2019-01-19T16:00:34.223Z,53.70
2019-01-19T16:04:04.419Z,53.67
2019-01-19T16:07:44.837Z,53.71
2019-01-19T16:11:03.916Z,53.74
2019-01-19T16:14:30.090Z,53.62
2019-01-19T16:17:50.516Z,53.58
2019-01-19T16:22:05.173Z,53.52
2019-01-19T16:25:26.157Z,53.51
2019-01-19T16:28:46.685Z,53.52
2019-01-19T16:32:14.707Z,53.64
2019-01-19T16:35:38.843Z,53.66
2019-01-19T16:39:11.745Z,53.67
2019-01-19T16:42:41.390Z,53.59
2019-01-19T16:46:15.805Z,53.48
2019-01-19T16:49:58.651Z,53.35
2019-01-19T16:53:28.964Z,53.29
2019-01-19T16:57:02.038Z,53.28
2019-01-19T17:00:33.845Z,53.36
2019-01-19T17:04:01.597Z,53.40
2019-01-19T17:07:11.356Z,53.40
2019-01-19T17:10:19.741Z,53.43
2019-01-19T17:13:38.337Z,53.48
2019-01-19T17:17:18.845Z,53.47
2019-01-19T17:20:24.167Z,53.48
2019-01-19T17:23:31.259Z,53.41
2019-01-19T17:27:13.614Z,53.45
2019-01-19T17:34:52.325Z,53.49
2019-01-19T17:37:46.876Z,53.51
2019-01-19T17:41:18.156Z,53.56
2019-01-19T17:44:22.145Z,53.64
2019-01-19T17:47:41.098Z,53.68
2019-01-19T17:50:54.809Z,53.78
2019-01-19T17:54:23.615Z,53.83
2019-01-19T17:57:39.022Z,53.87
2019-01-19T18:01:11.181Z,53.90
2019-01-19T18:04:21.908Z,53.94
2019-01-19T18:08:19.734Z,53.96
2019-01-19T18:11:58.581Z,53.94
2019-01-19T18:15:54.975Z,53.98
2019-01-19T18:19:15.271Z,54.01
2019-01-19T18:22:56.059Z,54.04
2019-01-19T18:26:43.691Z,54.14
2019-01-19T18:30:10.803Z,54.24
2019-01-19T18:33:52.852Z,54.26
2019-01-19T18:37:05.399Z,54.29
2019-01-19T18:40:23.798Z,54.26
2019-01-19T18:43:36.888Z,54.29
2019-01-19T18:47:42.690Z,54.34
2019-01-19T18:51:26.747Z,54.40
2019-01-19T18:55:10.422Z,54.40
2019-01-19T18:58:54.531Z,54.38
2019-01-19T19:02:22.382Z,54.39
2019-01-19T19:06:10.233Z,54.43
2019-01-19T19:09:32.676Z,54.49
2019-01-19T19:12:52.149Z,54.50
2019-01-19T19:16:21.255Z,54.50
2019-01-19T19:19:53.619Z,54.50
2019-01-19T19:23:51.676Z,54.49
2019-01-19T19:27:21.385Z,54.46
2019-01-19T19:30:40.653Z,54.42
2019-01-19T19:33:48.874Z,54.44
2019-01-19T19:36:52.377Z,54.44
2019-01-19T19:40:09.690Z,54.49
2019-01-19T19:43:08.954Z,54.50
2019-01-19T19:46:52.055Z,54.50
2019-01-19T19:50:32.835Z,54.45
2019-01-19T19:53:04.717Z,54.41
2019-01-19T19:55:34.483Z,54.41
2019-01-19T19:58:06.517Z,54.49
2019-01-19T20:00:38.661Z,54.53
2019-01-19T20:03:11.629Z,54.60
2019-01-19T20:05:43.448Z,54.61
2019-01-19T20:08:16.908Z,54.62
2019-01-19T20:10:48.794Z,54.60
2019-01-19T20:13:20.979Z,54.62
2019-01-19T20:15:52.801Z,54.63
2019-01-19T20:18:24.817Z,54.67
2019-01-19T20:20:56.596Z,54.69
2019-01-19T20:23:28.408Z,54.72
2019-01-19T20:26:01.222Z,54.77
2019-01-19T20:28:33.589Z,54.80
2019-01-19T20:31:05.640Z,54.78
2019-01-19T20:33:37.424Z,54.80
2019-01-19T20:36:12.232Z,54.83
2019-01-19T20:38:44.574Z,54.85
2019-01-19T20:41:16.363Z,54.86
2019-01-19T20:43:49.178Z,54.88
2019-01-19T20:46:20.990Z,54.90
2019-01-19T20:48:52.936Z,54.91
2019-01-19T20:51:25.245Z,54.93
2019-01-19T20:53:57.376Z,54.99
2019-01-19T20:56:29.583Z,55.00
2019-01-19T20:59:02.454Z,55.02
2019-01-19T21:01:34.339Z,55.04
2019-01-19T21:04:06.302Z,55.02
2019-01-19T21:06:38.040Z,55.05
2019-01-19T21:09:12.060Z,55.07
2019-01-19T21:11:43.806Z,55.08
2019-01-19T21:14:16.010Z,55.05
2019-01-19T21:16:49.126Z,55.06
2019-01-19T21:19:21.018Z,55.06
2019-01-19T21:21:52.915Z,55.04
2019-01-19T21:24:24.669Z,55.05
2019-01-19T21:26:56.422Z,55.05
2019-01-19T21:29:28.710Z,55.07
2019-01-19T21:32:00.564Z,55.10
2019-01-19T21:34:32.269Z,55.12
2019-01-19T21:37:04.094Z,55.12
2019-01-19T21:39:35.858Z,55.13
2019-01-19T21:42:07.610Z,55.14
2019-01-19T21:44:39.764Z,55.14
2019-01-19T21:47:11.542Z,55.14
2019-01-19T21:49:43.331Z,55.11
2019-01-19T21:52:15.231Z,55.13
2019-01-19T21:54:47.121Z,55.14
2019-01-19T21:57:18.838Z,55.13
2019-01-19T21:59:51.841Z,55.13
2019-01-19T22:02:23.581Z,55.13
2019-01-19T22:04:55.337Z,55.16
2019-01-19T22:07:27.077Z,55.13
2019-01-19T22:09:59.114Z,55.13
2019-01-19T22:12:32.664Z,55.09
2019-01-19T22:15:05.830Z,55.12
2019-01-19T22:17:39.818Z,55.13
2019-01-19T22:20:13.086Z,55.14
2019-01-19T22:22:44.780Z,55.14
2019-01-19T22:25:16.639Z,55.15
2019-01-19T22:27:49.660Z,55.17
2019-01-19T22:30:24.197Z,55.19
2019-01-19T22:32:57.544Z,55.18
2019-01-19T22:35:30.439Z,55.19
2019-01-19T22:38:03.226Z,55.19
2019-01-19T22:40:35.036Z,55.18
2019-01-19T22:43:10.412Z,55.18
2019-01-19T22:45:42.249Z,55.17
2019-01-19T22:48:14.383Z,55.21
2019-01-19T22:50:46.127Z,55.21
2019-01-19T22:53:17.847Z,55.20
2019-01-19T22:55:50.098Z,55.18
2019-01-19T22:58:22.650Z,55.16
2019-01-19T23:01:24.937Z,55.14
2019-01-19T23:03:57.194Z,55.16
2019-01-19T23:06:30.281Z,55.15
2019-01-19T23:09:02.064Z,55.16
2019-01-19T23:11:34.172Z,55.18
2019-01-19T23:14:08.469Z,55.19
2019-01-19T23:16:40.893Z,55.23
2019-01-19T23:19:12.951Z,55.24
2019-01-19T23:21:44.626Z,55.25
2019-01-19T23:24:16.299Z,55.30
2019-01-19T23:26:48.339Z,55.31
2019-01-19T23:29:19.995Z,55.32
2019-01-19T23:31:51.672Z,55.29
2019-01-19T23:34:23.705Z,55.30
2019-01-19T23:36:55.332Z,55.28
2019-01-19T23:39:27.012Z,55.27
2019-01-19T23:41:58.634Z,55.27
2019-01-19T23:44:31.100Z,55.28
2019-01-19T23:47:02.788Z,55.27
2019-01-19T23:49:34.823Z,55.29
2019-01-19T23:52:06.931Z,55.27
2019-01-19T23:54:38.577Z,55.26
2019-01-19T23:57:10.296Z,55.27
2019-01-19T23:59:41.963Z,55.30
